createdAt,value
2018-01-17T00:00:26.687Z,0.80
2018-01-17T00:02:54.940Z,1.10
2018-01-17T00:05:22.421Z,1.40
2018-01-17T00:07:49.909Z,1.43
2018-01-17T00:10:17.389Z,0.97
2018-01-17T00:12:44.869Z,1.20
2018-01-17T00:15:12.307Z,1.70
2018-01-17T00:17:39.762Z,1.50
2018-01-17T00:20:07.202Z,1.37
2018-01-17T00:22:41.514Z,1.57
2018-01-17T00:25:08.947Z,1.30
2018-01-17T00:27:36.386Z,1.10
2018-01-17T00:30:04.603Z,1.10
2018-01-17T00:32:32.055Z,0.87
2018-01-17T00:34:59.504Z,1.10
2018-01-17T00:37:26.960Z,0.90
2018-01-17T00:39:54.391Z,0.67
2018-01-17T00:42:22.602Z,1.10
2018-01-17T00:44:50.062Z,1.10
2018-01-17T00:47:18.275Z,0.80
2018-01-17T00:49:45.715Z,0.93
2018-01-17T00:52:13.167Z,1.33
2018-01-17T00:54:40.631Z,1.40
2018-01-17T00:57:08.075Z,1.37
2018-01-17T00:59:35.526Z,1.10
2018-01-17T01:02:02.966Z,1.20
2018-01-17T01:04:30.419Z,1.30
2018-01-17T01:06:57.873Z,1.13
2018-01-17T01:09:25.316Z,0.90
2018-01-17T01:11:52.754Z,1.30
2018-01-17T01:14:20.984Z,1.13
2018-01-17T01:16:49.282Z,0.90
2018-01-17T01:19:16.735Z,1.50
2018-01-17T01:21:44.175Z,0.87
2018-01-17T01:24:11.622Z,0.83
2018-01-17T01:26:39.062Z,1.00
2018-01-17T01:29:06.514Z,1.23
2018-01-17T01:31:34.000Z,0.90
2018-01-17T01:34:01.481Z,1.53
2018-01-17T01:36:28.953Z,1.10
2018-01-17T01:38:57.171Z,0.87
2018-01-17T01:41:24.654Z,1.27
2018-01-17T01:43:52.144Z,0.90
2018-01-17T01:46:20.392Z,1.10
2018-01-17T01:48:59.765Z,0.80
2018-01-17T01:51:27.244Z,0.80
2018-01-17T01:53:54.727Z,1.23
2018-01-17T01:56:22.213Z,0.93
2018-01-17T01:58:49.697Z,1.13
2018-01-17T02:01:17.177Z,1.07
2018-01-17T02:03:44.661Z,0.90
2018-01-17T02:06:12.140Z,1.27
2018-01-17T02:08:39.620Z,0.90
2018-01-17T02:11:07.112Z,0.90
2018-01-17T02:13:34.588Z,0.93
2018-01-17T02:16:02.076Z,0.80
2018-01-17T02:18:30.281Z,0.80
2018-01-17T02:20:57.746Z,0.90
2018-01-17T02:23:25.196Z,0.90
2018-01-17T02:25:52.647Z,1.10
2018-01-17T02:28:20.091Z,0.73
2018-01-17T02:30:47.548Z,0.70
2018-01-17T02:33:15.001Z,0.80
2018-01-17T02:35:42.454Z,0.80
2018-01-17T02:38:09.902Z,0.70
2018-01-17T02:40:40.320Z,0.80
2018-01-17T02:43:08.583Z,0.80
2018-01-17T02:45:36.898Z,0.90
2018-01-17T02:48:04.371Z,1.17
2018-01-17T02:50:31.855Z,0.90
2018-01-17T02:52:59.326Z,0.80
2018-01-17T02:55:26.775Z,0.93
2018-01-17T02:57:54.223Z,0.63
2018-01-17T03:00:21.680Z,0.90
2018-01-17T03:02:49.135Z,0.83
2018-01-17T03:05:16.595Z,0.60
2018-01-17T03:07:44.046Z,0.70
2018-01-17T03:10:11.486Z,0.80
2018-01-17T03:12:38.943Z,1.00
2018-01-17T03:15:06.398Z,0.83
2018-01-17T03:17:33.858Z,0.80
2018-01-17T03:20:01.314Z,1.00
2018-01-17T03:22:28.767Z,0.50
2018-01-17T03:24:56.231Z,0.70
2018-01-17T03:27:23.677Z,0.60
2018-01-17T03:29:51.136Z,1.00
2018-01-17T03:32:18.590Z,0.80
2018-01-17T03:34:46.031Z,0.87
2018-01-17T03:37:13.484Z,0.90
2018-01-17T03:39:40.939Z,0.90
2018-01-17T03:42:08.395Z,0.90
2018-01-17T03:44:35.843Z,1.10
2018-01-17T03:47:03.291Z,0.93
2018-01-17T03:49:30.736Z,0.83
2018-01-17T03:51:58.182Z,0.80
2018-01-17T03:54:26.396Z,1.00
2018-01-17T03:56:53.846Z,1.00
2018-01-17T03:59:21.291Z,1.20
2018-01-17T04:01:48.738Z,0.97
2018-01-17T04:04:16.180Z,1.10
2018-01-17T04:06:44.410Z,0.90
2018-01-17T04:09:11.858Z,1.10
2018-01-17T04:11:39.302Z,1.10
2018-01-17T04:14:06.750Z,1.40
2018-01-17T04:16:34.214Z,1.40
2018-01-17T04:19:01.672Z,0.80
2018-01-17T04:21:29.144Z,1.43
2018-01-17T04:23:56.582Z,0.90
2018-01-17T04:26:24.027Z,1.07
2018-01-17T04:28:51.470Z,1.03
2018-01-17T04:31:18.914Z,0.73
2018-01-17T04:33:47.129Z,0.80
2018-01-17T04:36:15.299Z,0.90
2018-01-17T04:38:42.758Z,0.80
2018-01-17T04:41:10.211Z,0.77
2018-01-17T04:43:37.678Z,0.50
2018-01-17T04:46:06.075Z,0.70
2018-01-17T04:48:33.531Z,0.80
2018-01-17T04:51:00.982Z,0.90
2018-01-17T04:53:28.451Z,0.50
2018-01-17T04:55:55.903Z,0.60
2018-01-17T04:58:23.362Z,0.50
2018-01-17T05:00:50.810Z,0.40
2018-01-17T05:03:18.258Z,0.50
2018-01-17T05:05:45.715Z,0.43
2018-01-17T05:08:13.174Z,0.70
2018-01-17T05:10:40.631Z,0.77
2018-01-17T05:13:08.083Z,0.60
2018-01-17T05:15:35.527Z,1.00
2018-01-17T05:18:02.982Z,0.77
2018-01-17T05:20:31.146Z,0.50
2018-01-17T05:22:59.371Z,0.60
2018-01-17T05:25:26.827Z,0.50
2018-01-17T05:27:54.283Z,0.60
2018-01-17T05:30:21.739Z,0.70
2018-01-17T05:32:49.282Z,0.97
2018-01-17T05:35:16.782Z,0.60
2018-01-17T05:37:44.342Z,0.80
2018-01-17T05:40:11.863Z,1.00
2018-01-17T05:42:39.315Z,0.90
2018-01-17T05:45:06.767Z,0.77
2018-01-17T05:47:34.223Z,0.90
2018-01-17T05:50:01.776Z,0.77
2018-01-17T05:52:29.267Z,0.80
2018-01-17T05:54:57.507Z,0.70
2018-01-17T05:57:25.038Z,0.73
2018-01-17T05:59:52.573Z,1.83
2018-01-17T06:02:20.059Z,1.03
2018-01-17T06:04:47.585Z,1.10
2018-01-17T06:07:15.075Z,1.90
2018-01-17T06:09:42.584Z,1.20
2018-01-17T06:12:10.095Z,1.40
2018-01-17T06:14:37.611Z,0.97
2018-01-17T06:17:05.099Z,0.93
2018-01-17T06:19:32.567Z,1.13
2018-01-17T06:22:00.040Z,0.83
2018-01-17T06:24:27.491Z,1.10
2018-01-17T06:26:54.945Z,0.93
2018-01-17T06:29:22.666Z,0.80
2018-01-17T06:31:50.127Z,1.03
2018-01-17T06:34:17.571Z,1.10
2018-01-17T06:36:45.011Z,1.23
2018-01-17T06:39:13.226Z,0.70
2018-01-17T06:41:40.676Z,0.97
2018-01-17T06:44:08.139Z,0.90
2018-01-17T06:46:35.594Z,1.10
2018-01-17T06:49:03.050Z,1.30
2018-01-17T06:51:30.507Z,1.07
2018-01-17T06:53:57.971Z,1.00
2018-01-17T06:56:25.422Z,1.10
2018-01-17T06:58:52.874Z,1.03
2018-01-17T07:01:20.330Z,1.23
2018-01-17T07:03:47.787Z,1.13
2018-01-17T07:06:15.242Z,1.10
2018-01-17T07:08:42.685Z,0.80
2018-01-17T07:11:10.142Z,1.10
2018-01-17T07:13:37.582Z,1.10
2018-01-17T07:16:05.799Z,1.10
2018-01-17T07:18:33.244Z,1.20
2018-01-17T07:21:00.711Z,1.27
2018-01-17T07:23:28.161Z,0.80
2018-01-17T07:26:17.052Z,1.00
2018-01-17T07:28:44.508Z,1.10
2018-01-17T07:31:11.958Z,0.80
2018-01-17T07:33:39.420Z,1.13
2018-01-17T07:36:06.879Z,1.20
2018-01-17T07:38:34.334Z,0.80
2018-01-17T07:41:01.786Z,1.00
2018-01-17T07:43:29.232Z,1.00
2018-01-17T07:45:56.692Z,1.10
2018-01-17T07:48:24.886Z,0.93
2018-01-17T07:50:52.335Z,1.20
2018-01-17T07:53:19.778Z,1.27
2018-01-17T07:55:47.243Z,1.20
2018-01-17T07:58:14.699Z,1.30
2018-01-17T08:00:42.143Z,0.93
2018-01-17T08:03:09.597Z,1.00
2018-01-17T08:05:37.060Z,1.40
2018-01-17T08:08:04.506Z,0.90
2018-01-17T08:10:31.962Z,1.50
2018-01-17T08:13:00.024Z,1.17
2018-01-17T08:15:27.467Z,1.10
2018-01-17T08:17:54.923Z,1.00
2018-01-17T08:20:22.373Z,1.07
2018-01-17T08:22:50.590Z,1.10
2018-01-17T08:25:18.079Z,1.23
2018-01-17T08:27:46.286Z,1.40
2018-01-17T08:30:13.738Z,1.17
2018-01-17T08:32:41.203Z,1.13
2018-01-17T08:35:08.650Z,1.27
2018-01-17T08:37:36.111Z,1.20
2018-01-17T08:40:03.566Z,1.50
2018-01-17T08:42:31.027Z,1.30
2018-01-17T08:44:58.480Z,1.20
2018-01-17T08:47:25.938Z,1.30
2018-01-17T08:49:53.442Z,1.70
2018-01-17T08:52:21.674Z,0.93
2018-01-17T08:54:49.119Z,1.30
2018-01-17T08:57:16.591Z,2.53
2018-01-17T08:59:44.030Z,1.07
2018-01-17T09:02:11.505Z,1.13
2018-01-17T09:04:38.947Z,1.30
2018-01-17T09:07:06.738Z,1.70
2018-01-17T09:09:36.178Z,1.67
2018-01-17T09:12:04.398Z,1.20
2018-01-17T09:14:31.866Z,1.30
2018-01-17T09:16:59.332Z,1.50
2018-01-17T09:19:26.778Z,1.33
2018-01-17T09:21:54.230Z,1.20
2018-01-17T09:24:21.694Z,1.43
2018-01-17T09:26:49.143Z,1.30
2018-01-17T09:29:16.604Z,1.73
2018-01-17T09:31:44.051Z,1.30
2018-01-17T09:34:11.515Z,1.40
2018-01-17T09:36:38.962Z,1.30
2018-01-17T09:39:06.410Z,1.67
2018-01-17T09:41:33.862Z,1.13
2018-01-17T09:44:01.321Z,1.73
2018-01-17T09:46:28.770Z,1.40
2018-01-17T09:48:56.995Z,1.27
2018-01-17T09:51:24.439Z,1.23
2018-01-17T09:53:51.895Z,1.37
2018-01-17T09:56:19.379Z,1.10
2018-01-17T09:58:47.603Z,1.20
2018-01-17T10:01:15.051Z,0.80
2018-01-17T10:03:42.500Z,1.03
2018-01-17T10:06:09.943Z,0.70
2018-01-17T10:08:37.395Z,1.20
2018-01-17T10:11:04.839Z,1.17
2018-01-17T10:13:33.110Z,1.53
2018-01-17T10:16:01.322Z,1.00
2018-01-17T10:18:28.774Z,1.30
2018-01-17T10:20:56.223Z,1.20
2018-01-17T10:23:23.670Z,1.00
2018-01-17T10:25:51.119Z,1.00
2018-01-17T10:28:19.607Z,0.90
2018-01-17T10:30:47.046Z,1.00
2018-01-17T10:33:15.290Z,1.20
2018-01-17T10:35:43.641Z,1.00
2018-01-17T10:38:11.096Z,0.90
2018-01-17T10:40:38.681Z,0.90
2018-01-17T10:43:06.115Z,1.13
2018-01-17T10:45:33.583Z,1.00
2018-01-17T10:48:01.053Z,1.30
2018-01-17T10:50:28.503Z,1.27
2018-01-17T10:52:55.961Z,1.30
2018-01-17T10:55:23.421Z,1.40
2018-01-17T10:57:50.863Z,1.20
2018-01-17T11:00:18.315Z,0.90
2018-01-17T11:02:45.776Z,0.93
2018-01-17T11:05:13.235Z,1.10
2018-01-17T11:07:40.681Z,1.30
2018-01-17T11:10:08.134Z,1.30
2018-01-17T11:12:35.587Z,1.40
2018-01-17T11:15:04.845Z,1.20
2018-01-17T11:17:33.071Z,1.50
2018-01-17T11:20:00.552Z,1.60
2018-01-17T11:22:28.075Z,1.40
2018-01-17T11:24:56.718Z,1.10
2018-01-17T11:27:24.169Z,1.40
2018-01-17T11:29:51.625Z,1.20
2018-01-17T11:32:19.078Z,1.57
2018-01-17T11:34:46.538Z,1.60
2018-01-17T11:37:14.179Z,1.83
2018-01-17T11:39:41.642Z,1.53
2018-01-17T11:42:09.116Z,1.40
2018-01-17T11:44:36.571Z,1.30
2018-01-17T11:47:04.040Z,1.37
2018-01-17T11:49:31.492Z,1.70
2018-01-17T11:51:58.996Z,1.60
2018-01-17T11:54:26.444Z,2.37
2018-01-17T11:56:53.926Z,1.13
2018-01-17T11:59:21.375Z,1.90
2018-01-17T12:01:48.841Z,1.47
2018-01-17T12:04:16.319Z,1.57
2018-01-17T12:06:43.822Z,1.47
2018-01-17T12:09:11.342Z,1.50
2018-01-17T12:11:39.568Z,1.60
2018-01-17T12:14:07.056Z,2.10
2018-01-17T12:16:35.309Z,1.70
2018-01-17T12:19:02.800Z,1.90
2018-01-17T12:21:30.325Z,1.50
2018-01-17T12:23:57.816Z,1.37
2018-01-17T12:26:26.088Z,1.87
2018-01-17T12:28:53.564Z,1.70
2018-01-17T12:31:21.061Z,1.63
2018-01-17T12:33:48.540Z,1.93
2018-01-17T12:36:16.040Z,1.73
2018-01-17T12:38:43.490Z,1.83
2018-01-17T12:41:11.705Z,1.73
2018-01-17T12:43:39.152Z,1.33
2018-01-17T12:46:06.610Z,1.87
2018-01-17T12:48:34.050Z,1.70
2018-01-17T12:51:01.507Z,1.80
2018-01-17T12:53:28.951Z,1.83
2018-01-17T12:55:56.403Z,1.67
2018-01-17T12:58:24.607Z,1.80
2018-01-17T13:00:52.068Z,1.60
2018-01-17T13:03:19.579Z,2.20
2018-01-17T13:05:47.791Z,1.60
2018-01-17T13:08:15.247Z,2.27
2018-01-17T13:10:42.690Z,2.17
2018-01-17T13:13:10.144Z,4.27
2018-01-17T13:15:37.590Z,3.00
2018-01-17T13:18:05.862Z,4.07
2018-01-17T13:20:33.259Z,2.27
2018-01-17T13:23:00.732Z,1.83
2018-01-17T13:25:28.188Z,2.37
2018-01-17T13:27:55.640Z,2.33
2018-01-17T13:30:23.087Z,2.13
2018-01-17T13:32:50.543Z,2.03
2018-01-17T13:35:17.986Z,2.57
2018-01-17T13:37:45.440Z,2.50
2018-01-17T13:40:12.882Z,1.83
2018-01-17T13:42:40.328Z,1.77
2018-01-17T13:45:07.767Z,2.00
2018-01-17T13:47:35.982Z,2.37
2018-01-17T13:50:03.450Z,2.30
2018-01-17T13:52:30.899Z,2.27
2018-01-17T13:54:58.348Z,2.23
2018-01-17T13:57:25.808Z,2.10
2018-01-17T13:59:53.262Z,2.77
2018-01-17T14:02:20.703Z,1.90
2018-01-17T14:04:48.143Z,1.80
2018-01-17T14:07:16.356Z,2.03
2018-01-17T14:09:43.799Z,2.30
2018-01-17T14:12:11.256Z,1.87
2018-01-17T14:14:38.699Z,2.30
2018-01-17T14:17:06.903Z,2.20
2018-01-17T14:19:34.359Z,1.43
2018-01-17T14:22:01.819Z,1.70
2018-01-17T14:24:29.268Z,2.43
2018-01-17T14:26:56.711Z,1.97
2018-01-17T14:29:24.159Z,2.10
2018-01-17T14:31:51.602Z,2.63
2018-01-17T14:34:19.813Z,1.83
2018-01-17T14:36:47.255Z,2.70
2018-01-17T14:39:14.707Z,2.60
2018-01-17T14:41:42.146Z,2.63
2018-01-17T14:44:10.358Z,1.97
2018-01-17T14:46:37.799Z,2.00
2018-01-17T14:49:05.243Z,2.23
2018-01-17T14:51:32.695Z,2.40
2018-01-17T14:54:00.911Z,2.00
2018-01-17T14:56:28.359Z,2.97
2018-01-17T14:58:55.806Z,2.17
2018-01-17T15:01:23.251Z,2.10
2018-01-17T15:07:08.701Z,2.10
2018-01-17T15:09:36.159Z,2.30
2018-01-17T15:12:03.603Z,2.50
2018-01-17T15:14:31.067Z,2.40
2018-01-17T15:16:58.512Z,1.90
2018-01-17T15:19:25.966Z,1.90
2018-01-17T15:21:53.419Z,2.80
2018-01-17T15:24:20.877Z,2.50
2018-01-17T15:26:48.319Z,2.70
2018-01-17T15:29:15.771Z,2.83
2018-01-17T15:31:43.222Z,2.60
2018-01-17T15:34:10.680Z,2.60
2018-01-17T15:36:38.129Z,2.03
2018-01-17T15:39:05.568Z,2.70
2018-01-17T15:41:33.072Z,2.40
2018-01-17T15:44:00.521Z,3.73
2018-01-17T15:46:27.968Z,1.87
2018-01-17T15:48:55.427Z,2.87
2018-01-17T15:51:22.883Z,3.77
2018-01-17T15:53:50.334Z,3.50
2018-01-17T15:56:17.790Z,3.73
2018-01-17T15:58:45.230Z,2.93
2018-01-17T16:01:12.679Z,3.10
2018-01-17T16:03:40.114Z,2.60
2018-01-17T16:06:08.339Z,2.50
2018-01-17T16:08:35.796Z,2.40
2018-01-17T16:11:03.247Z,1.80
2018-01-17T16:13:30.720Z,3.07
2018-01-17T16:15:58.183Z,2.13
2018-01-17T16:18:25.630Z,2.60
2018-01-17T16:20:53.079Z,1.83
2018-01-17T16:23:20.528Z,3.20
2018-01-17T16:25:47.986Z,2.53
2018-01-17T16:28:15.442Z,2.40
2018-01-17T16:30:42.894Z,2.20
2018-01-17T16:33:10.343Z,2.20
2018-01-17T16:35:37.805Z,2.30
2018-01-17T16:38:05.247Z,2.60
2018-01-17T16:40:32.699Z,2.73
2018-01-17T16:43:00.151Z,3.20
2018-01-17T16:45:28.367Z,2.60
2018-01-17T16:47:55.814Z,2.93
2018-01-17T16:50:23.272Z,3.00
2018-01-17T16:52:50.816Z,3.53
2018-01-17T16:55:18.299Z,3.03
2018-01-17T16:57:45.748Z,2.50
2018-01-17T17:00:13.211Z,2.70
2018-01-17T17:02:40.672Z,3.37
2018-01-17T17:05:08.114Z,2.47
2018-01-17T17:07:35.572Z,3.20
2018-01-17T17:10:03.023Z,2.50
2018-01-17T17:12:30.506Z,2.70
2018-01-17T17:14:57.946Z,3.47
2018-01-17T17:17:25.398Z,3.63
2018-01-17T17:19:52.847Z,3.30
2018-01-17T17:22:20.303Z,2.77
2018-01-17T17:24:47.767Z,2.80
2018-01-17T17:27:15.219Z,3.53
2018-01-17T17:29:42.674Z,3.93
2018-01-17T17:32:11.424Z,3.87
2018-01-17T17:34:39.649Z,4.43
2018-01-17T17:37:07.106Z,4.07
2018-01-17T17:39:34.559Z,3.70
2018-01-17T17:42:02.006Z,4.00
2018-01-17T17:44:29.465Z,4.70
2018-01-17T17:46:56.928Z,7.63
2018-01-17T17:49:24.395Z,7.30
2018-01-17T17:51:51.861Z,7.50
2018-01-17T17:54:19.307Z,5.03
2018-01-17T17:56:46.763Z,4.97
2018-01-17T17:59:14.207Z,4.23
2018-01-17T18:01:41.670Z,4.27
2018-01-17T18:04:09.122Z,4.60
2018-01-17T18:06:36.586Z,5.03
2018-01-17T18:09:04.068Z,4.67
2018-01-17T18:11:31.531Z,4.33
2018-01-17T18:13:58.978Z,4.80
2018-01-17T18:16:26.448Z,4.90
2018-01-17T18:18:54.684Z,4.73
2018-01-17T18:21:22.137Z,4.30
2018-01-17T18:23:49.606Z,4.63
2018-01-17T18:26:17.094Z,4.97
2018-01-17T18:28:44.510Z,3.70
2018-01-17T18:31:11.966Z,4.20
2018-01-17T18:33:39.422Z,4.20
2018-01-17T18:36:06.898Z,3.20
2018-01-17T18:38:34.351Z,3.33
2018-01-17T18:41:02.020Z,3.40
2018-01-17T18:43:29.474Z,3.70
2018-01-17T18:45:56.934Z,3.50
2018-01-17T18:48:24.396Z,4.77
2018-01-17T18:50:51.843Z,3.03
2018-01-17T18:53:19.302Z,3.40
2018-01-17T18:55:46.775Z,3.50
2018-01-17T18:58:14.220Z,3.87
2018-01-17T19:00:41.675Z,4.53
2018-01-17T19:03:09.135Z,4.13
2018-01-17T19:05:36.587Z,3.53
2018-01-17T19:08:04.038Z,3.70
2018-01-17T19:10:31.488Z,3.23
2018-01-17T19:12:58.938Z,3.20
2018-01-17T19:15:26.394Z,3.20
2018-01-17T19:17:53.852Z,3.53
2018-01-17T19:20:21.310Z,2.97
2018-01-17T19:22:48.765Z,3.33
2018-01-17T19:25:16.227Z,2.97
2018-01-17T19:27:43.687Z,3.10
2018-01-17T19:30:11.143Z,4.47
2018-01-17T19:32:38.595Z,3.40
2018-01-17T19:35:06.043Z,3.10
2018-01-17T19:37:33.494Z,3.33
2018-01-17T19:40:00.964Z,3.63
2018-01-17T19:42:29.575Z,3.80
2018-01-17T19:44:57.019Z,3.13
2018-01-17T19:47:24.512Z,3.13
2018-01-17T19:49:52.726Z,3.80
2018-01-17T19:52:20.216Z,3.63
2018-01-17T19:54:47.662Z,3.57
2018-01-17T19:57:15.124Z,4.20
2018-01-17T19:59:42.620Z,3.00
2018-01-17T20:02:10.072Z,3.63
2018-01-17T20:04:37.526Z,3.03
2018-01-17T20:07:04.973Z,3.00
2018-01-17T20:09:33.247Z,4.30
2018-01-17T20:12:00.690Z,3.50
2018-01-17T20:14:28.147Z,4.10
2018-01-17T20:16:55.645Z,3.80
2018-01-17T20:19:23.153Z,3.13
2018-01-17T20:21:50.595Z,3.53
2018-01-17T20:24:18.047Z,2.73
2018-01-17T20:26:45.511Z,3.40
2018-01-17T20:29:13.027Z,3.47
2018-01-17T20:31:40.462Z,3.00
2018-01-17T20:34:08.683Z,3.60
2018-01-17T20:36:36.134Z,3.87
2018-01-17T20:39:03.591Z,4.60
2018-01-17T20:41:31.085Z,2.90
2018-01-17T20:43:58.542Z,3.63
2018-01-17T20:46:26.034Z,3.80
2018-01-17T20:48:54.263Z,2.90
2018-01-17T20:51:21.764Z,4.20
2018-01-17T20:53:50.049Z,2.60
2018-01-17T20:56:17.593Z,3.53
2018-01-17T20:58:45.816Z,3.90
2018-01-17T21:01:13.289Z,3.53
2018-01-17T21:03:40.792Z,4.20
2018-01-17T21:06:08.258Z,4.13
2018-01-17T21:08:35.707Z,3.87
2018-01-17T21:11:03.162Z,4.80
2018-01-17T21:13:30.609Z,3.20
2018-01-17T21:15:58.852Z,3.57
2018-01-17T21:18:30.239Z,3.50
2018-01-17T21:20:57.731Z,3.20
2018-01-17T21:23:25.187Z,3.30
2018-01-17T21:25:52.638Z,3.07
2018-01-17T21:28:20.070Z,2.90
2018-01-17T21:30:48.543Z,3.50
2018-01-17T21:33:16.855Z,2.80
2018-01-17T21:35:44.347Z,4.93
2018-01-17T21:38:11.825Z,2.50
2018-01-17T21:40:40.043Z,3.17
2018-01-17T21:43:13.068Z,2.30
2018-01-17T21:45:46.235Z,2.33
2018-01-17T21:48:13.746Z,3.37
2018-01-17T21:50:41.335Z,3.87
2018-01-17T21:53:08.777Z,2.70
2018-01-17T21:55:36.234Z,3.07
2018-01-17T21:58:03.691Z,3.00
2018-01-17T22:00:31.780Z,3.10
2018-01-17T22:02:59.223Z,3.40
2018-01-17T22:05:26.711Z,3.70
2018-01-17T22:07:54.166Z,2.73
2018-01-17T22:10:21.610Z,2.60
2018-01-17T22:12:49.136Z,2.70
2018-01-17T22:15:16.640Z,3.07
2018-01-17T22:17:44.087Z,2.97
2018-01-17T22:20:11.581Z,2.23
2018-01-17T22:22:39.320Z,3.00
2018-01-17T22:25:06.782Z,2.40
2018-01-17T22:27:34.303Z,2.50
2018-01-17T22:30:01.764Z,1.90
2018-01-17T22:32:29.239Z,1.77
2018-01-17T22:34:56.728Z,1.80
2018-01-17T22:37:24.176Z,2.77
2018-01-17T22:39:51.620Z,2.10
2018-01-17T22:42:19.075Z,1.70
2018-01-17T22:44:46.518Z,2.40
2018-01-17T22:47:17.327Z,2.77
2018-01-17T22:49:44.986Z,3.00
2018-01-17T22:52:12.444Z,2.67
2018-01-17T22:54:39.898Z,2.83
2018-01-17T22:57:07.364Z,1.60
2018-01-17T22:59:34.822Z,1.57
2018-01-17T23:02:02.278Z,1.73
2018-01-17T23:04:29.722Z,1.60
2018-01-17T23:06:57.175Z,0.93
2018-01-17T23:09:24.625Z,1.20
2018-01-17T23:11:52.079Z,1.60
2018-01-17T23:14:19.525Z,1.33
2018-01-17T23:16:46.997Z,1.73
2018-01-17T23:19:14.447Z,1.90
2018-01-17T23:21:41.900Z,1.43
2018-01-17T23:24:09.367Z,1.83
2018-01-17T23:26:36.823Z,2.13
2018-01-17T23:29:04.275Z,2.13
2018-01-17T23:31:32.063Z,2.17
2018-01-17T23:33:59.991Z,1.80
2018-01-17T23:36:27.520Z,1.90
2018-01-17T23:38:55.048Z,2.00
2018-01-17T23:41:22.500Z,2.67
2018-01-17T23:43:50.007Z,2.53
2018-01-17T23:46:17.523Z,2.40
2018-01-17T23:48:46.090Z,2.03
2018-01-17T23:51:13.601Z,2.40
2018-01-17T23:53:41.116Z,3.70
2018-01-17T23:56:08.559Z,2.70
2018-01-17T23:58:36.087Z,2.23
